Time;durP1;ratioP1;P1;durP2;ratioP2;P2;SDS_P1;SDS_P2;PMS_P1;PMS_P2;Temp;Humidity;BMP_temperature;BMP_pressure;BME280_temperature;BME280_humidity;BME280_pressure;Samples;Min_cycle;Max_cycle;Signal;HPM_P1;HPM_P2
2023/09/27 00:01:24;;;;;;;8.67;4.70;;;15.10;99.90;;;;;;1931284;73;25224;-90
2023/09/27 00:04:13;;;;;;;5.47;4.83;;;15.10;99.90;;;;;;1937694;72;25243;-90
2023/09/27 00:07:01;;;;;;;5.70;5.07;;;15.10;99.90;;;;;;1931247;73;25167;-90
2023/09/27 00:09:51;;;;;;;6.80;5.17;;;15.10;99.90;;;;;;1928348;73;25771;-90
2023/09/27 00:12:40;;;;;;;7.50;4.77;;;15.10;99.90;;;;;;1919035;73;25275;-90
2023/09/27 00:15:30;;;;;;;8.20;5.57;;;15.10;99.90;;;;;;1932686;73;25248;-90
2023/09/27 00:18:19;;;;;;;7.23;4.90;;;15.10;99.90;;;;;;1916340;73;25685;-91
2023/09/27 00:21:09;;;;;;;9.40;5.30;;;15.00;99.90;;;;;;1928457;73;25286;-91
2023/09/27 00:23:57;;;;;;;8.00;5.07;;;15.10;99.90;;;;;;1937185;73;25210;-91
2023/09/27 00:26:45;;;;;;;5.73;5.13;;;15.10;99.90;;;;;;1908551;73;25691;-91
2023/09/27 00:29:35;;;;;;;6.30;5.20;;;15.10;99.90;;;;;;1919398;73;25748;-91
2023/09/27 00:45:50;;;;;;;9.53;5.37;;;15.10;99.90;;;;;;1882124;75;27216;-90
2023/09/27 00:51:32;;;;;;;9.50;5.00;;;15.00;99.90;;;;;;1942309;72;26929;-90
2023/09/27 00:54:21;;;;;;;9.73;5.90;;;15.00;99.90;;;;;;1930669;73;25275;-90
2023/09/27 00:57:09;;;;;;;7.80;5.37;;;15.00;99.90;;;;;;1933991;72;25290;-91
2023/09/27 00:59:58;;;;;;;7.77;5.37;;;15.00;99.90;;;;;;1932822;72;25369;-91
2023/09/27 01:02:47;;;;;;;9.00;5.93;;;15.00;99.90;;;;;;1939293;73;25289;-91
2023/09/27 01:05:37;;;;;;;5.80;5.00;;;15.10;99.90;;;;;;1934959;72;25345;-91
2023/09/27 01:21:52;;;;;;;7.87;5.67;;;15.10;99.90;;;;;;1862893;73;27255;-91
2023/09/27 02:03:23;;;;;;;8.50;7.17;;;15.10;99.90;;;;;;1921432;73;26390;-91
2023/09/27 02:09:04;;;;;;;12.60;7.30;;;15.10;99.90;;;;;;1996185;71;27165;-91
2023/09/27 02:11:53;;;;;;;10.17;7.30;;;15.10;99.90;;;;;;1931637;73;25557;-91
2023/09/27 02:14:43;;;;;;;9.77;7.57;;;15.00;99.90;;;;;;1914695;73;25373;-91
2023/09/27 02:30:59;;;;;;;16.50;8.63;;;14.90;99.90;;;;;;1877962;75;27138;-91
2023/09/27 03:12:15;;;;;;;16.47;11.70;;;15.10;99.90;;;;;;1898327;74;27141;-91
2023/09/27 03:29:32;;;;;;;18.50;12.30;;;15.10;99.90;;;;;;1913116;73;26439;-91
2023/09/27 03:56:38;;;;;;;18.43;13.20;;;15.00;99.90;;;;;;1941369;71;27193;-91
2023/09/27 04:02:17;;;;;;;21.73;14.33;;;14.90;99.90;;;;;;1948164;72;26937;-90
2023/09/27 04:05:07;;;;;;;25.53;14.60;;;14.90;99.90;;;;;;1935700;73;25268;-90
2023/09/27 04:07:57;;;;;;;20.03;15.03;;;14.90;99.90;;;;;;1944871;73;25264;-90
2023/09/27 04:10:46;;;;;;;23.60;15.37;;;14.90;99.90;;;;;;1940210;72;25814;-90
2023/09/27 04:13:34;;;;;;;23.30;15.37;;;14.90;99.90;;;;;;1934786;73;25232;-91
2023/09/27 04:16:23;;;;;;;30.63;16.27;;;15.00;99.90;;;;;;1944430;72;25233;-91
2023/09/27 04:19:12;;;;;;;26.03;16.60;;;14.90;99.90;;;;;;1922270;73;25197;-91
2023/09/27 04:22:00;;;;;;;22.43;15.90;;;14.90;99.90;;;;;;1943962;73;25229;-91
2023/09/27 04:24:49;;;;;;;30.93;17.87;;;14.90;99.90;;;;;;1927736;73;25219;-91
2023/09/27 04:27:38;;;;;;;27.93;17.03;;;14.90;99.90;;;;;;1938330;73;26017;-91
2023/09/27 05:27:41;;;;;;;22.40;14.73;;;15.00;99.90;;;;;;1870219;75;28133;-91
2023/09/27 05:43:45;;;;;;;26.77;14.17;;;15.00;99.90;;;;;;1910659;73;27061;-91
2023/09/27 06:14:10;;;;;;;29.07;16.03;;;15.10;99.90;;;;;;1910598;74;27046;-91
2023/09/27 06:25:57;;;;;;;26.93;16.00;;;15.20;99.90;;;;;;1912687;73;27396;-89
2023/09/27 06:28:46;;;;;;;25.00;15.83;;;15.20;99.90;;;;;;1871373;74;25223;-90
2023/09/27 06:31:39;;;;;;;24.90;15.97;;;15.20;99.90;;;;;;1902100;75;25198;-91
2023/09/27 06:34:26;;;;;;;20.00;14.60;;;15.20;99.90;;;;;;1899726;75;25218;-91
2023/09/27 06:37:14;;;;;;;31.20;15.40;;;15.10;99.90;;;;;;1907459;75;25957;-91
2023/09/27 06:42:56;;;;;;;32.53;17.97;;;14.90;99.90;;;;;;1942695;72;26945;-91
2023/09/27 06:59:11;;;;;;;28.67;17.57;;;14.90;99.90;;;;;;1962555;72;27054;-90
2023/09/27 07:15:02;;;;;;;35.33;21.23;;;15.00;99.90;;;;;;1950147;71;26330;-91
2023/09/27 07:17:52;;;;;;;40.20;20.87;;;14.90;99.90;;;;;;1887179;75;25690;-91
2023/09/27 07:20:42;;;;;;;36.80;20.00;;;14.90;99.90;;;;;;1911412;75;25738;-91
2023/09/27 07:23:31;;;;;;;37.03;21.83;;;14.80;99.90;;;;;;1879078;76;25643;-91
2023/09/27 07:26:19;;;;;;;39.10;21.37;;;14.80;99.90;;;;;;1874073;76;25625;-90
2023/09/27 07:29:09;;;;;;;45.03;22.53;;;14.80;99.90;;;;;;1870233;75;25232;-91
2023/09/27 07:31:57;;;;;;;45.33;21.73;;;14.90;99.90;;;;;;1866137;76;25258;-90
2023/09/27 07:34:47;;;;;;;39.77;23.63;;;14.80;99.90;;;;;;1886575;76;25291;-90
2023/09/27 07:37:36;;;;;;;46.93;24.20;;;14.80;99.90;;;;;;1860111;76;25257;-90
2023/09/27 07:40:25;;;;;;;45.67;23.80;;;14.90;99.90;;;;;;1863728;76;25745;-91
2023/09/27 07:56:42;;;;;;;45.67;21.97;;;15.00;99.90;;;;;;1942085;72;27114;-90
2023/09/27 08:53:03;;;;;;;51.70;25.47;;;15.00;99.90;;;;;;1887744;74;27676;-92
2023/09/27 08:58:49;;;;;;;47.07;25.40;;;15.00;99.90;;;;;;1955988;72;27019;-91
2023/09/27 09:04:33;;;;;;;54.37;25.73;;;15.10;99.90;;;;;;1945192;72;27664;-91
2023/09/27 09:21:08;;;;;;;52.30;27.87;;;15.30;99.90;;;;;;1984730;71;26752;-90
2023/09/27 09:26:41;;;;;;;57.93;27.60;;;15.10;99.90;;;;;;1942480;72;27036;-91
2023/09/27 09:32:27;;;;;;;56.47;28.13;;;15.10;99.90;;;;;;1925278;72;27644;-91
2023/09/27 09:35:31;;;;;;;51.70;27.13;;;15.00;99.90;;;;;;1901670;75;25252;-91
2023/09/27 09:38:30;;;;;;;53.83;26.77;;;15.00;99.90;;;;;;1907999;74;25232;-91
2023/09/27 09:41:19;;;;;;;59.20;28.43;;;15.00;99.90;;;;;;1897946;75;25227;-91
2023/09/27 09:44:21;;;;;;;53.43;27.27;;;15.00;99.90;;;;;;1890417;75;25240;-91
2023/09/27 09:47:14;;;;;;;54.77;26.33;;;15.00;99.90;;;;;;1883733;75;25275;-91
2023/09/27 09:50:05;;;;;;;52.60;26.70;;;15.00;99.90;;;;;;1895520;75;25212;-91
2023/09/27 09:52:55;;;;;;;61.43;28.50;;;15.00;99.90;;;;;;1892908;75;25244;-91
2023/09/27 10:20:14;;;;;;;48.87;25.67;;;14.90;99.90;;;;;;1881285;75;27184;-91
2023/09/27 10:36:32;;;;;;;57.17;27.30;;;15.20;99.90;;;;;;1891685;75;26711;-91
2023/09/27 10:42:06;;;;;;;57.40;28.10;;;15.50;99.90;;;;;;1933073;74;26640;-91
2023/09/27 10:44:55;;;;;;;58.87;27.97;;;15.60;99.90;;;;;;1869123;74;25321;-91
2023/09/27 10:47:45;;;;;;;53.83;27.20;;;15.50;99.90;;;;;;1874985;74;25850;-91
2023/09/27 10:50:34;;;;;;;51.23;26.90;;;15.50;99.90;;;;;;1871424;74;25912;-92
2023/09/27 10:53:24;;;;;;;55.03;27.90;;;15.40;99.90;;;;;;1873498;74;25244;-91
2023/09/27 10:56:14;;;;;;;61.83;27.60;;;15.40;99.90;;;;;;1871379;76;25339;-91
2023/09/27 10:59:03;;;;;;;50.17;27.13;;;15.40;99.90;;;;;;1836714;76;25298;-91
2023/09/27 11:01:51;;;;;;;56.57;27.70;;;15.40;99.90;;;;;;1876010;74;25938;-91
2023/09/27 11:04:41;;;;;;;55.20;27.90;;;15.40;99.90;;;;;;1881217;74;25269;-92
2023/09/27 11:07:45;;;;;;;47.70;25.20;;;15.40;99.90;;;;;;1881673;75;25231;-92
2023/09/27 11:13:30;;;;;;;50.07;24.73;;;15.50;99.90;;;;;;1941804;72;27675;-91
2023/09/27 11:16:19;;;;;;;53.80;26.07;;;15.40;99.90;;;;;;1912885;73;25265;-91
2023/09/27 11:19:10;;;;;;;54.97;26.10;;;15.50;99.90;;;;;;1924578;73;25315;-91
2023/09/27 11:21:58;;;;;;;50.60;26.80;;;15.50;99.90;;;;;;1934853;73;25850;-91
2023/09/27 11:24:48;;;;;;;56.37;26.90;;;15.50;99.90;;;;;;1932100;73;26382;-91
2023/09/27 11:27:38;;;;;;;48.17;24.63;;;15.60;99.90;;;;;;1935258;72;25721;-91
2023/09/27 11:30:30;;;;;;;50.67;24.87;;;15.60;99.90;;;;;;1924647;73;25284;-91
2023/09/27 11:33:19;;;;;;;46.77;25.93;;;15.60;99.90;;;;;;1939796;73;25823;-91
2023/09/27 11:36:09;;;;;;;53.13;26.23;;;15.70;99.90;;;;;;1942621;73;25212;-91
2023/09/27 11:39:00;;;;;;;42.07;23.60;;;15.70;99.90;;;;;;1926424;73;25300;-91
2023/09/27 11:41:49;;;;;;;42.13;25.13;;;15.70;99.90;;;;;;1926615;73;26564;-91
2023/09/27 11:44:38;;;;;;;48.27;24.67;;;15.70;99.90;;;;;;1908069;75;25320;-91
2023/09/27 11:47:27;;;;;;;41.17;23.17;;;15.70;99.90;;;;;;1897129;75;25226;-91
2023/09/27 11:50:16;;;;;;;41.40;22.93;;;15.80;99.90;;;;;;1900676;75;25312;-91
2023/09/27 11:53:05;;;;;;;46.33;22.60;;;15.80;99.90;;;;;;1891641;74;25318;-91
2023/09/27 11:55:55;;;;;;;40.73;22.80;;;15.80;99.90;;;;;;1897121;74;25251;-91
2023/09/27 11:58:43;;;;;;;43.67;23.47;;;15.80;99.90;;;;;;1861324;75;25316;-91
2023/09/27 12:15:00;;;;;;;39.10;20.37;;;16.30;99.90;;;;;;1971787;71;27870;-91
2023/09/27 12:34:20;;;;;;;32.03;19.87;;;16.30;99.90;;;;;;1988917;71;27110;-91
2023/09/27 12:37:09;;;;;;;34.47;19.53;;;16.40;99.90;;;;;;1941459;73;25245;-91
2023/09/27 12:39:58;;;;;;;34.93;19.53;;;16.50;99.90;;;;;;1939580;73;25444;-91
2023/09/27 12:42:47;;;;;;;31.40;18.83;;;16.50;99.90;;;;;;1954449;72;26385;-91
2023/09/27 12:45:37;;;;;;;33.83;19.80;;;16.50;99.90;;;;;;1946811;72;25280;-91
2023/09/27 12:48:26;;;;;;;31.43;18.97;;;16.50;99.90;;;;;;1950887;72;25231;-91
2023/09/27 12:51:14;;;;;;;36.60;21.50;;;16.40;99.90;;;;;;1953003;72;26618;-91
2023/09/27 12:54:03;;;;;;;28.87;18.97;;;16.30;99.90;;;;;;1950419;72;25332;-91
2023/09/27 12:56:52;;;;;;;28.37;18.30;;;16.30;99.90;;;;;;1964796;72;25277;-91
2023/09/27 12:59:40;;;;;;;37.40;20.80;;;16.40;99.90;;;;;;1948909;72;25483;-91
2023/09/27 13:02:30;;;;;;;35.43;19.70;;;16.50;99.90;;;;;;1952114;72;25223;-91
2023/09/27 13:05:18;;;;;;;34.93;20.43;;;16.40;99.90;;;;;;1947090;73;25213;-91
2023/09/27 13:08:07;;;;;;;32.50;19.67;;;16.50;99.90;;;;;;1951421;72;25721;-92
2023/09/27 13:10:57;;;;;;;36.37;20.10;;;16.50;99.90;;;;;;1948213;72;25274;-92
2023/09/27 13:30:07;;;;;;;32.13;19.93;;;16.50;99.90;;;;;;1949788;72;26952;-91
2023/09/27 13:32:55;;;;;;;31.77;20.13;;;16.50;99.90;;;;;;1920124;73;25311;-91
2023/09/27 13:35:44;;;;;;;31.23;20.60;;;16.60;99.90;;;;;;1905971;73;25238;-91
2023/09/27 13:38:33;;;;;;;27.33;19.10;;;16.80;99.90;;;;;;1927044;73;25288;-91
2023/09/27 13:41:22;;;;;;;28.03;18.20;;;16.90;99.90;;;;;;1930986;73;25284;-91
2023/09/27 13:47:03;;;;;;;30.70;18.63;;;17.10;99.90;;;;;;1956577;72;26675;-90
2023/09/27 13:49:52;;;;;;;32.10;17.93;;;17.10;99.90;;;;;;1930941;73;25258;-91
2023/09/27 13:52:41;;;;;;;29.27;18.43;;;17.20;99.90;;;;;;1914812;73;25322;-90
2023/09/27 14:09:46;;;;;;;25.10;13.77;;;17.00;99.90;;;;;;1990768;71;26829;-90
2023/09/27 14:40:32;;;;;;;19.27;11.30;;;17.30;99.90;;;;;;1910441;74;26475;-92
2023/09/27 14:56:47;;;;;;;19.70;9.77;;;17.20;99.90;;;;;;1859188;75;27422;-91
2023/09/27 15:13:16;;;;;;;17.60;10.37;;;17.00;99.90;;;;;;1836260;77;26846;-90
2023/09/27 15:18:57;;;;;;;18.60;10.80;;;16.80;99.90;;;;;;1938994;72;26894;-91
2023/09/27 15:21:47;;;;;;;21.77;10.67;;;16.80;99.90;;;;;;1925414;73;25301;-91
2023/09/27 15:40:56;;;;;;;20.10;10.83;;;16.40;99.90;;;;;;1985232;71;26997;-91
2023/09/27 15:57:19;;;;;;;22.30;11.63;;;16.30;99.90;;;;;;1930986;72;27067;-89
2023/09/27 16:03:01;;;;;;;20.43;11.07;;;16.00;99.90;;;;;;1907210;74;27669;-90
2023/09/27 16:05:50;;;;;;;20.17;9.73;;;16.10;99.90;;;;;;1863461;75;25366;-90
2023/09/27 16:35:37;;;;;;;17.50;7.17;;;15.90;99.90;;;;;;1923318;74;27187;-91
2023/09/27 16:41:19;;;;;;;19.97;8.00;;;15.70;99.90;;;;;;1952472;72;27073;-90
2023/09/27 16:57:26;;;;;;;21.77;8.77;;;15.60;99.90;;;;;;1912646;73;27137;-91
2023/09/27 17:03:13;;;;;;;25.50;9.27;;;15.40;99.90;;;;;;1940944;72;26984;-91
2023/09/27 17:06:02;;;;;;;19.57;9.50;;;15.30;99.90;;;;;;1917545;73;25236;-90
2023/09/27 17:08:51;;;;;;;24.03;9.50;;;15.30;99.90;;;;;;1931092;73;25278;-91
2023/09/27 17:11:39;;;;;;;18.57;9.17;;;15.30;99.90;;;;;;1939177;73;25537;-91
2023/09/27 17:14:28;;;;;;;23.80;9.33;;;15.20;99.90;;;;;;1936356;73;25344;-91
2023/09/27 17:44:34;;;;;;;21.00;8.77;;;14.90;99.90;;;;;;1943582;72;26972;-90
2023/09/27 17:47:25;;;;;;;14.57;8.10;;;14.90;99.90;;;;;;1929726;73;25259;-90
2023/09/27 17:50:13;;;;;;;23.57;8.93;;;15.00;99.90;;;;;;1935318;72;25826;-91
2023/09/27 17:53:02;;;;;;;21.80;8.90;;;15.00;99.90;;;;;;1937248;73;25251;-90
2023/09/27 17:55:51;;;;;;;21.33;9.70;;;15.00;99.90;;;;;;1923291;73;25639;-90
2023/09/27 17:58:40;;;;;;;25.83;9.53;;;15.00;99.90;;;;;;1924766;73;25733;-90
2023/09/27 18:01:28;;;;;;;25.67;10.60;;;15.00;99.90;;;;;;1934019;73;25596;-91
2023/09/27 18:04:17;;;;;;;23.27;9.83;;;14.90;99.90;;;;;;1931121;73;25261;-90
2023/09/27 18:07:06;;;;;;;24.17;10.63;;;14.90;99.90;;;;;;1942991;72;25236;-90
2023/09/27 18:09:54;;;;;;;30.37;10.77;;;15.00;99.90;;;;;;1945563;73;25278;-91
2023/09/27 18:12:43;;;;;;;21.17;10.37;;;14.90;99.90;;;;;;1932540;73;25218;-91
2023/09/27 18:15:32;;;;;;;24.77;10.67;;;14.90;99.90;;;;;;1943133;73;25254;-91
2023/09/27 18:18:21;;;;;;;33.90;11.60;;;14.80;99.90;;;;;;1934514;73;25221;-90
2023/09/27 18:21:11;;;;;;;22.70;11.33;;;14.80;99.90;;;;;;1947414;73;25263;-90
2023/09/27 18:23:59;;;;;;;20.77;11.20;;;14.80;99.90;;;;;;1921175;73;25297;-90
2023/09/27 18:26:48;;;;;;;26.47;12.17;;;14.70;99.90;;;;;;1946010;73;25752;-91
2023/09/27 18:29:37;;;;;;;33.67;11.50;;;14.70;99.90;;;;;;1922957;73;25225;-90
2023/09/27 18:46:09;;;;;;;26.83;12.20;;;14.70;99.90;;;;;;2015909;71;27526;-91
2023/09/27 19:16:57;;;;;;;21.30;9.23;;;14.30;99.90;;;;;;1995215;71;26275;-90
2023/09/27 19:35:46;;;;;;;20.33;6.77;;;14.20;99.90;;;;;;1967489;72;26902;-91
2023/09/27 19:38:35;;;;;;;29.47;6.87;;;14.20;99.90;;;;;;1927693;73;25229;-90
2023/09/27 20:33:28;;;;;;;19.27;6.80;;;13.30;99.90;;;;;;1868653;74;26543;-89
2023/09/27 20:39:02;;;;;;;24.93;6.87;;;13.00;99.90;;;;;;1939139;72;27405;-90
2023/09/27 20:41:52;;;;;;;24.20;6.60;;;12.90;99.90;;;;;;1939149;73;25351;-90
2023/09/27 20:44:42;;;;;;;10.70;5.83;;;12.80;99.90;;;;;;1943740;73;25304;-90
2023/09/27 21:17:58;;;;;;;18.93;6.63;;;11.30;99.90;;;;;;1958426;72;27171;-90
2023/09/27 21:23:38;;;;;;;22.87;6.50;;;11.40;99.90;;;;;;1946998;72;27030;-90
2023/09/27 21:26:27;;;;;;;19.20;7.17;;;11.40;99.90;;;;;;1931099;73;25632;-90
2023/09/27 21:29:16;;;;;;;19.47;6.30;;;11.40;99.90;;;;;;1947307;73;25220;-89
2023/09/27 21:32:05;;;;;;;18.60;6.97;;;11.30;99.90;;;;;;1956187;72;25242;-89
2023/09/27 21:34:54;;;;;;;15.83;6.40;;;11.20;99.90;;;;;;1941410;73;25210;-90
2023/09/27 21:37:43;;;;;;;13.07;6.67;;;11.00;99.90;;;;;;1941384;73;25725;-90
2023/09/27 21:40:33;;;;;;;17.23;6.17;;;10.90;99.90;;;;;;1932924;73;25201;-89
2023/09/27 21:43:22;;;;;;;19.60;6.80;;;10.80;99.90;;;;;;1916633;73;25320;-91
2023/09/27 21:46:21;;;;;;;17.93;6.73;;;10.80;99.90;;;;;;1913318;74;25234;-91
2023/09/27 21:49:10;;;;;;;14.57;6.73;;;10.60;99.90;;;;;;1865124;75;25256;-90
2023/09/27 22:06:25;;;;;;;37.27;8.97;;;10.40;99.90;;;;;;1949784;73;26961;-90
2023/09/27 22:12:04;;;;;;;28.23;7.63;;;10.90;99.90;;;;;;1936919;72;26995;-90
2023/09/27 22:17:43;;;;;;;35.37;8.10;;;11.40;99.90;;;;;;1918745;72;27663;-90
2023/09/27 22:20:31;;;;;;;23.07;7.40;;;11.80;99.90;;;;;;1895153;75;25218;-90
2023/09/27 22:23:31;;;;;;;37.77;7.70;;;12.00;99.90;;;;;;1853044;76;25927;-90
2023/09/27 22:26:17;;;;;;;33.10;7.23;;;12.10;99.90;;;;;;1814953;78;25272;-91
2023/09/27 22:29:08;;;;;;;32.10;7.27;;;12.30;99.90;;;;;;1908610;74;26412;-91
2023/09/27 22:31:57;;;;;;;30.50;6.87;;;12.30;99.90;;;;;;1864735;76;25281;-90
2023/09/27 22:34:46;;;;;;;34.77;7.27;;;12.40;99.90;;;;;;1828041;77;25327;-91
2023/09/27 22:37:35;;;;;;;31.73;7.03;;;12.40;99.90;;;;;;1856580;76;25267;-90
2023/09/27 22:40:25;;;;;;;21.00;7.13;;;12.50;99.90;;;;;;1837960;77;25237;-91
2023/09/27 22:43:14;;;;;;;28.07;6.57;;;12.60;99.90;;;;;;1849092;76;25308;-91
2023/09/27 22:46:05;;;;;;;26.87;6.00;;;12.50;99.90;;;;;;1788171;80;25268;-91
2023/09/27 22:48:53;;;;;;;31.13;5.70;;;12.40;99.90;;;;;;1878240;75;25369;-91
2023/09/27 22:51:45;;;;;;;37.20;5.77;;;12.20;99.90;;;;;;1838953;76;25277;-91
2023/09/27 23:10:36;;;;;;;21.03;5.37;;;11.30;99.90;;;;;;1951995;72;27049;-90
2023/09/27 23:13:34;;;;;;;25.60;5.63;;;11.10;99.90;;;;;;1921836;73;25726;-90
2023/09/27 23:16:33;;;;;;;36.87;5.63;;;10.90;99.90;;;;;;1917632;73;25275;-90
2023/09/27 23:19:18;;;;;;;29.30;5.67;;;10.80;99.90;;;;;;1928693;73;25298;-91
2023/09/27 23:22:09;;;;;;;27.80;5.80;;;10.70;99.90;;;;;;1940905;73;25307;-91
2023/09/27 23:25:38;;;;;;;20.57;5.60;;;10.60;99.90;;;;;;1926100;73;25264;-91
2023/09/27 23:30:49;;;;;;;20.03;5.40;;;10.40;99.90;;;;;;2007965;69;26993;-90
2023/09/27 23:33:41;;;;;;;23.87;5.70;;;10.30;99.90;;;;;;1969753;72;25697;-90
2023/09/27 23:40:17;;;;;;;21.10;6.20;;;10.00;99.90;;;;;;1975245;71;26552;-90
2023/09/27 23:45:58;;;;;;;25.63;5.57;;;10.10;99.90;;;;;;1959614;72;26983;-90
2023/09/27 23:51:42;;;;;;;24.60;6.70;;;9.80;99.90;;;;;;1944421;72;26962;-90
